createdAt,value
2022-09-14T00:00:09.843Z,18.18
2022-09-14T00:02:36.433Z,18.06
2022-09-14T00:05:03.014Z,17.94
2022-09-14T00:07:29.562Z,17.87
2022-09-14T00:09:56.046Z,17.84
2022-09-14T00:12:22.453Z,17.88
2022-09-14T00:14:48.882Z,17.88
2022-09-14T00:17:15.255Z,17.91
2022-09-14T00:19:41.673Z,17.91
2022-09-14T00:22:08.043Z,17.98
2022-09-14T00:24:35.088Z,17.87
2022-09-14T00:27:02.829Z,18.06
2022-09-14T00:29:30.777Z,17.89
2022-09-14T00:31:57.336Z,17.89
2022-09-14T00:34:23.851Z,17.90
2022-09-14T00:36:51.745Z,17.82
2022-09-14T00:39:20.286Z,18.01
2022-09-14T00:41:49.207Z,18.03
2022-09-14T00:44:15.609Z,18.04
2022-09-14T00:46:51.485Z,18.02
2022-09-14T00:49:32.267Z,18.00
2022-09-14T00:52:09.188Z,17.97
2022-09-14T00:54:39.253Z,17.88
2022-09-14T00:57:05.681Z,17.91
2022-09-14T00:59:36.349Z,18.01
2022-09-14T01:02:03.280Z,18.05
2022-09-14T01:04:30.469Z,17.90
2022-09-14T01:07:33.810Z,17.84
2022-09-14T01:10:12.236Z,17.69
2022-09-14T01:12:58.094Z,17.57
2022-09-14T01:15:49.476Z,17.63
2022-09-14T01:18:27.629Z,17.71
2022-09-14T01:21:15.973Z,17.75
2022-09-14T01:24:07.550Z,17.67
2022-09-14T01:27:02.480Z,17.49
2022-09-14T01:29:32.869Z,17.75
2022-09-14T01:32:25.599Z,17.81
2022-09-14T01:35:05.117Z,17.77
2022-09-14T01:37:38.058Z,17.68
2022-09-14T01:40:13.422Z,17.80
2022-09-14T01:42:42.926Z,17.87
2022-09-14T01:45:13.235Z,17.76
2022-09-14T01:47:57.168Z,17.55
2022-09-14T01:50:28.989Z,17.80
2022-09-14T01:53:00.919Z,17.82
2022-09-14T01:55:32.187Z,17.59
2022-09-14T01:58:25.777Z,17.68
2022-09-14T02:00:54.035Z,17.63
2022-09-14T02:03:27.050Z,17.74
2022-09-14T02:06:05.137Z,17.80
2022-09-14T02:08:33.201Z,17.78
2022-09-14T02:11:00.690Z,17.84
2022-09-14T02:13:27.784Z,17.84
2022-09-14T02:15:54.504Z,17.72
2022-09-14T02:18:21.682Z,17.68
2022-09-14T02:21:06.054Z,17.60
2022-09-14T02:23:34.784Z,17.66
2022-09-14T02:26:01.203Z,17.64
2022-09-14T02:28:27.674Z,17.83
2022-09-14T02:31:31.681Z,17.87
2022-09-14T02:34:23.665Z,17.84
2022-09-14T02:36:59.040Z,17.69
2022-09-14T02:39:36.663Z,17.76
2022-09-14T02:42:15.211Z,17.67
2022-09-14T02:45:00.927Z,17.58
2022-09-14T02:47:55.250Z,17.73
2022-09-14T02:50:37.098Z,17.71
2022-09-14T02:53:15.714Z,17.56
2022-09-14T02:55:54.719Z,17.41
2022-09-14T02:58:21.735Z,17.27
2022-09-14T03:00:51.158Z,17.18
2022-09-14T03:03:21.229Z,17.26
2022-09-14T03:05:47.673Z,17.24
2022-09-14T03:08:14.475Z,17.20
2022-09-14T03:10:43.403Z,17.20
2022-09-14T03:13:09.917Z,17.43
2022-09-14T03:15:36.303Z,17.40
2022-09-14T03:18:02.782Z,17.38
2022-09-14T03:20:31.623Z,17.43
2022-09-14T03:23:02.438Z,17.53
2022-09-14T03:25:29.714Z,17.43
2022-09-14T03:27:59.740Z,17.41
2022-09-14T03:30:26.958Z,17.28
2022-09-14T03:32:53.594Z,17.41
2022-09-14T03:35:20.230Z,17.49
2022-09-14T03:37:46.883Z,17.49
2022-09-14T03:40:20.734Z,17.54
2022-09-14T03:42:50.244Z,17.52
2022-09-14T03:45:18.320Z,17.46
2022-09-14T03:47:44.992Z,17.50
2022-09-14T03:50:12.998Z,17.34
2022-09-14T03:52:39.925Z,17.60
2022-09-14T03:55:08.066Z,17.30
2022-09-14T03:57:35.116Z,17.49
2022-09-14T04:00:01.915Z,17.19
2022-09-14T04:02:29.653Z,17.40
2022-09-14T04:04:56.171Z,17.38
2022-09-14T04:07:22.674Z,17.33
2022-09-14T04:09:49.071Z,17.36
2022-09-14T04:12:15.442Z,17.35
2022-09-14T04:14:41.846Z,17.21
2022-09-14T04:17:08.253Z,17.29
2022-09-14T04:19:34.747Z,17.40
2022-09-14T04:22:01.235Z,17.26
2022-09-14T04:24:30.312Z,17.34
2022-09-14T04:26:57.125Z,17.33
2022-09-14T04:29:23.545Z,17.09
2022-09-14T04:31:49.956Z,17.29
2022-09-14T04:34:16.454Z,17.35
2022-09-14T04:36:42.914Z,17.28
2022-09-14T04:39:13.809Z,17.21
2022-09-14T04:41:40.807Z,17.07
2022-09-14T04:44:07.328Z,17.02
2022-09-14T04:46:45.074Z,17.09
2022-09-14T04:49:13.004Z,17.01
2022-09-14T04:51:39.698Z,17.09
2022-09-14T04:54:13.039Z,17.11
2022-09-14T04:56:39.825Z,17.30
2022-09-14T04:59:06.913Z,17.12
2022-09-14T05:01:36.629Z,17.09
2022-09-14T05:04:04.472Z,16.98
2022-09-14T05:06:33.953Z,16.96
2022-09-14T05:09:02.026Z,16.94
2022-09-14T05:11:32.163Z,17.02
2022-09-14T05:14:00.134Z,17.13
2022-09-14T05:16:35.349Z,17.31
2022-09-14T05:19:04.735Z,17.27
2022-09-14T05:21:32.772Z,17.26
2022-09-14T05:24:01.905Z,17.13
2022-09-14T05:26:29.695Z,17.16
2022-09-14T05:28:58.047Z,17.16
2022-09-14T05:31:26.377Z,17.21
2022-09-14T05:33:53.335Z,17.19
2022-09-14T05:36:20.129Z,17.09
2022-09-14T05:38:46.618Z,17.06
2022-09-14T05:41:14.796Z,17.01
2022-09-14T05:43:42.191Z,17.01
2022-09-14T05:46:13.037Z,17.07
2022-09-14T05:48:40.265Z,17.19
2022-09-14T05:51:10.217Z,17.12
2022-09-14T05:53:36.955Z,17.03
2022-09-14T05:56:09.312Z,16.94
2022-09-14T05:58:37.174Z,16.90
2022-09-14T06:01:08.806Z,16.93
2022-09-14T06:03:35.465Z,17.01
2022-09-14T06:06:03.190Z,17.19
2022-09-14T06:08:29.640Z,17.04
2022-09-14T06:10:56.117Z,17.20
2022-09-14T06:13:25.330Z,17.18
2022-09-14T06:15:51.698Z,17.25
2022-09-14T06:18:18.102Z,17.24
2022-09-14T06:20:53.053Z,17.39
2022-09-14T06:23:19.460Z,17.39
2022-09-14T06:25:45.948Z,17.25
2022-09-14T06:28:12.378Z,17.18
2022-09-14T06:30:42.626Z,17.15
2022-09-14T06:33:09.011Z,16.94
2022-09-14T06:35:35.428Z,16.90
2022-09-14T06:38:01.812Z,16.86
2022-09-14T06:40:28.253Z,16.91
2022-09-14T06:42:54.737Z,17.00
2022-09-14T06:45:21.151Z,17.19
2022-09-14T06:47:47.740Z,16.98
2022-09-14T06:50:14.156Z,16.95
2022-09-14T06:52:40.595Z,16.88
2022-09-14T06:55:07.388Z,16.81
2022-09-14T06:57:33.826Z,17.08
2022-09-14T07:00:00.233Z,17.22
2022-09-14T07:02:26.679Z,17.11
2022-09-14T07:04:53.167Z,17.23
2022-09-14T07:07:19.593Z,17.23
2022-09-14T07:09:46.117Z,17.09
2022-09-14T07:12:12.565Z,17.26
2022-09-14T07:14:38.996Z,17.20
2022-09-14T07:17:05.759Z,17.26
2022-09-14T07:19:32.170Z,17.25
2022-09-14T07:21:58.557Z,17.36
2022-09-14T07:24:24.913Z,17.45
2022-09-14T07:26:51.322Z,17.21
2022-09-14T07:29:19.900Z,16.89
2022-09-14T07:31:49.655Z,17.11
2022-09-14T07:34:16.552Z,17.29
2022-09-14T07:36:43.476Z,17.27
2022-09-14T07:39:14.982Z,17.28
2022-09-14T07:41:42.021Z,17.24
2022-09-14T07:44:09.512Z,17.23
2022-09-14T07:46:41.458Z,17.17
2022-09-14T07:49:09.338Z,17.28
2022-09-14T07:51:36.900Z,17.29
2022-09-14T07:54:05.563Z,17.46
2022-09-14T07:56:32.033Z,17.34
2022-09-14T07:59:23.777Z,17.38
2022-09-14T08:01:46.846Z,17.37
2022-09-14T08:04:13.444Z,17.41
2022-09-14T08:06:40.597Z,17.42
2022-09-14T08:09:08.634Z,17.50
2022-09-14T08:11:35.762Z,17.47
2022-09-14T08:14:07.322Z,17.53
2022-09-14T08:16:34.897Z,17.37
2022-09-14T08:19:04.124Z,17.42
2022-09-14T08:21:32.212Z,17.46
2022-09-14T08:23:59.690Z,17.57
2022-09-14T08:26:27.429Z,17.51
2022-09-14T08:28:55.285Z,17.39
2022-09-14T08:31:24.836Z,17.46
2022-09-14T08:33:58.409Z,17.43
2022-09-14T08:36:25.860Z,17.45
2022-09-14T08:38:52.433Z,17.54
2022-09-14T08:41:45.487Z,17.37
2022-09-14T08:44:11.796Z,17.56
2022-09-14T08:46:49.687Z,17.43
2022-09-14T08:49:31.444Z,17.65
2022-09-14T08:51:58.074Z,17.55
2022-09-14T08:54:25.179Z,17.68
2022-09-14T08:57:16.598Z,17.62
2022-09-14T09:00:13.189Z,17.48
2022-09-14T09:03:13.049Z,17.30
2022-09-14T09:06:10.921Z,17.23
2022-09-14T09:09:02.701Z,17.27
2022-09-14T09:11:40.129Z,17.22
2022-09-14T09:14:19.049Z,16.97
2022-09-14T09:16:50.774Z,16.94
2022-09-14T09:19:28.430Z,16.73
2022-09-14T09:21:55.984Z,16.66
2022-09-14T09:24:28.399Z,16.71
2022-09-14T09:26:54.874Z,16.77
2022-09-14T09:29:21.819Z,16.68
2022-09-14T09:31:53.754Z,16.60
2022-09-14T09:34:29.934Z,16.59
2022-09-14T09:36:56.410Z,16.62
2022-09-14T09:39:27.199Z,16.17
2022-09-14T09:42:25.156Z,16.64
2022-09-14T09:45:10.297Z,16.58
2022-09-14T09:47:41.876Z,16.44
2022-09-14T09:50:14.669Z,16.49
2022-09-14T09:52:54.361Z,16.55
2022-09-14T09:55:23.187Z,16.40
2022-09-14T09:57:49.611Z,16.36
2022-09-14T10:00:26.337Z,16.51
2022-09-14T10:02:54.025Z,16.61
2022-09-14T10:05:31.338Z,16.59
2022-09-14T10:08:15.047Z,16.60
2022-09-14T10:10:43.321Z,16.35
2022-09-14T10:13:23.028Z,16.31
2022-09-14T10:15:50.129Z,16.52
2022-09-14T10:18:20.420Z,16.45
2022-09-14T10:20:52.879Z,16.50
2022-09-14T10:23:22.710Z,16.49
2022-09-14T10:26:13.383Z,16.45
2022-09-14T10:28:45.567Z,16.48
2022-09-14T10:31:12.205Z,16.72
2022-09-14T10:33:38.883Z,16.72
2022-09-14T10:36:17.715Z,16.57
2022-09-14T10:38:52.816Z,16.52
2022-09-14T10:41:26.249Z,16.70
2022-09-14T10:44:29.816Z,16.65
2022-09-14T10:47:24.222Z,16.78
2022-09-14T10:50:15.195Z,16.74
2022-09-14T10:53:00.166Z,16.55
2022-09-14T10:55:42.180Z,16.70
2022-09-14T10:58:28.798Z,16.61
2022-09-14T11:01:17.012Z,16.70
2022-09-14T11:04:04.341Z,16.69
2022-09-14T11:06:38.835Z,17.03
2022-09-14T11:09:42.953Z,17.21
2022-09-14T11:12:12.244Z,16.96
2022-09-14T11:15:03.481Z,16.95
2022-09-14T11:17:42.313Z,17.25
2022-09-14T11:20:27.522Z,17.21
2022-09-14T11:23:19.448Z,17.42
2022-09-14T11:25:52.655Z,17.63
2022-09-14T11:28:43.147Z,17.53
2022-09-14T11:31:40.661Z,17.87
2022-09-14T11:34:19.878Z,18.22
2022-09-14T11:36:50.984Z,18.07
2022-09-14T11:39:24.825Z,17.94
2022-09-14T11:41:57.306Z,17.98
2022-09-14T11:44:37.726Z,18.06
2022-09-14T11:47:08.323Z,18.07
2022-09-14T11:49:40.708Z,17.88
2022-09-14T11:52:17.539Z,17.54
2022-09-14T11:54:46.821Z,17.61
2022-09-14T11:57:22.424Z,17.43
2022-09-14T11:59:54.832Z,17.57
2022-09-14T12:02:30.234Z,17.50
2022-09-14T12:05:16.918Z,17.55
2022-09-14T12:07:43.496Z,17.66
2022-09-14T12:10:18.725Z,17.70
2022-09-14T12:13:18.428Z,17.89
2022-09-14T12:15:45.145Z,17.91
2022-09-14T12:18:11.490Z,17.88
2022-09-14T12:20:38.077Z,17.66
2022-09-14T12:23:24.744Z,17.87
2022-09-14T12:25:53.783Z,17.89
2022-09-14T12:28:35.486Z,17.88
2022-09-14T12:31:02.868Z,17.88
2022-09-14T12:33:32.117Z,18.06
2022-09-14T12:35:58.889Z,18.06
2022-09-14T12:38:31.482Z,18.00
2022-09-14T12:40:59.045Z,18.07
2022-09-14T12:43:37.569Z,18.08
2022-09-14T12:46:07.908Z,17.93
2022-09-14T12:48:49.603Z,17.89
2022-09-14T12:51:28.460Z,17.81
2022-09-14T12:54:23.351Z,17.76
2022-09-14T12:57:07.962Z,17.68
2022-09-14T12:59:54.282Z,17.77
2022-09-14T13:02:51.492Z,17.28
2022-09-14T13:05:23.735Z,17.79
2022-09-14T13:07:51.077Z,17.82
2022-09-14T13:10:25.095Z,17.86
2022-09-14T13:12:52.297Z,17.97
2022-09-14T13:15:28.644Z,18.09
2022-09-14T13:18:19.207Z,18.04
2022-09-14T13:20:56.450Z,18.07
2022-09-14T13:23:27.455Z,18.10
2022-09-14T13:25:54.027Z,18.08
2022-09-14T13:28:21.719Z,17.95
2022-09-14T13:30:56.663Z,18.03
2022-09-14T13:33:23.662Z,18.01
2022-09-14T13:35:55.989Z,17.97
2022-09-14T13:38:25.380Z,18.11
2022-09-14T13:40:55.149Z,18.07
2022-09-14T13:43:22.927Z,17.96
2022-09-14T13:45:51.269Z,18.04
2022-09-14T13:48:19.752Z,18.00
2022-09-14T13:50:49.973Z,17.89
2022-09-14T13:53:48.382Z,17.93
2022-09-14T13:56:31.008Z,17.69
2022-09-14T13:59:12.734Z,17.48
2022-09-14T14:01:42.733Z,17.39
2022-09-14T14:04:35.272Z,17.38
2022-09-14T14:07:06.866Z,17.30
2022-09-14T14:09:42.666Z,17.29
2022-09-14T14:12:11.470Z,17.21
2022-09-14T14:14:38.110Z,17.08
2022-09-14T14:17:13.315Z,17.04
2022-09-14T14:19:43.770Z,16.81
2022-09-14T14:22:16.145Z,16.93
2022-09-14T14:25:11.711Z,16.84
2022-09-14T14:27:31.247Z,16.74
2022-09-14T14:29:59.319Z,16.69
2022-09-14T14:32:25.996Z,16.74
2022-09-14T14:34:55.339Z,16.79
2022-09-14T14:37:22.010Z,16.89
2022-09-14T14:39:49.768Z,16.87
2022-09-14T14:42:17.076Z,16.93
2022-09-14T14:44:45.027Z,16.59
2022-09-14T14:47:15.907Z,16.44
2022-09-14T14:49:42.391Z,16.38
2022-09-14T14:52:09.619Z,16.32
2022-09-14T14:54:36.005Z,16.27
2022-09-14T14:57:02.369Z,16.44
2022-09-14T14:59:29.822Z,16.36
2022-09-14T15:01:57.534Z,16.23
2022-09-14T15:04:24.508Z,16.21
2022-09-14T15:06:51.484Z,16.30
2022-09-14T15:09:24.422Z,16.34
2022-09-14T15:11:54.405Z,16.01
2022-09-14T15:14:26.748Z,15.63
2022-09-14T15:16:57.836Z,16.32
2022-09-14T15:19:24.445Z,16.41
2022-09-14T15:21:50.965Z,16.04
2022-09-14T15:24:17.442Z,16.24
2022-09-14T15:26:43.840Z,16.25
2022-09-14T15:29:13.575Z,16.35
2022-09-14T15:31:40.716Z,16.33
2022-09-14T15:34:07.238Z,15.91
2022-09-14T15:36:51.044Z,15.99
2022-09-14T15:39:22.838Z,15.76
2022-09-14T15:41:50.121Z,16.03
2022-09-14T15:44:16.803Z,15.98
2022-09-14T15:46:44.653Z,15.84
2022-09-14T15:49:14.124Z,15.80
2022-09-14T15:51:46.490Z,15.67
2022-09-14T15:54:13.303Z,15.75
2022-09-14T15:56:39.706Z,15.69
2022-09-14T15:59:06.081Z,15.62
2022-09-14T16:01:33.170Z,15.70
2022-09-14T16:04:11.727Z,15.94
2022-09-14T16:06:38.657Z,15.89
2022-09-14T16:09:07.094Z,16.11
2022-09-14T16:11:34.703Z,15.97
2022-09-14T16:14:01.464Z,15.88
2022-09-14T16:16:27.985Z,16.03
2022-09-14T16:18:54.740Z,16.06
2022-09-14T16:21:23.546Z,15.96
2022-09-14T16:23:52.663Z,16.08
2022-09-14T16:26:22.393Z,16.14
2022-09-14T16:28:51.083Z,16.09
2022-09-14T16:31:18.573Z,16.01
2022-09-14T16:33:49.584Z,15.87
2022-09-14T16:36:19.517Z,15.80
2022-09-14T16:38:45.958Z,15.74
2022-09-14T16:41:13.832Z,16.02
2022-09-14T16:43:40.904Z,15.95
2022-09-14T16:46:16.756Z,15.99
2022-09-14T16:48:45.841Z,15.92
2022-09-14T16:51:13.614Z,15.78
2022-09-14T16:53:44.040Z,15.76
2022-09-14T16:56:12.871Z,15.81
2022-09-14T16:58:39.686Z,15.79
2022-09-14T17:01:13.473Z,15.83
2022-09-14T17:03:41.217Z,15.87
2022-09-14T17:06:11.624Z,15.92
2022-09-14T17:08:43.082Z,15.91
2022-09-14T17:11:10.993Z,15.60
2022-09-14T17:13:37.418Z,15.82
2022-09-14T17:16:09.641Z,15.62
2022-09-14T17:18:37.844Z,15.74
2022-09-14T17:21:07.788Z,15.81
2022-09-14T17:23:34.504Z,15.88
2022-09-14T17:26:03.541Z,15.76
2022-09-14T17:28:30.277Z,15.68
2022-09-14T17:30:58.786Z,15.70
2022-09-14T17:33:26.347Z,15.66
2022-09-14T17:35:58.007Z,15.80
2022-09-14T17:38:26.704Z,15.80
2022-09-14T17:40:59.650Z,15.73
2022-09-14T17:43:26.006Z,15.76
2022-09-14T17:45:54.054Z,15.71
2022-09-14T17:48:21.041Z,15.67
2022-09-14T17:50:47.716Z,15.72
2022-09-14T17:53:14.637Z,15.63
2022-09-14T17:55:41.169Z,15.63
2022-09-14T17:58:07.505Z,15.48
2022-09-14T18:00:34.220Z,15.47
2022-09-14T18:03:00.757Z,15.28
2022-09-14T18:05:27.956Z,15.30
2022-09-14T18:07:54.483Z,15.47
2022-09-14T18:10:20.886Z,15.34
2022-09-14T18:12:48.369Z,15.22
2022-09-14T18:15:16.148Z,15.42
2022-09-14T18:17:44.445Z,15.53
2022-09-14T18:20:12.384Z,15.56
2022-09-14T18:22:38.950Z,15.31
2022-09-14T18:25:07.284Z,15.52
2022-09-14T18:27:33.888Z,15.47
2022-09-14T18:30:01.538Z,15.44
2022-09-14T18:32:28.005Z,15.40
2022-09-14T18:34:54.371Z,15.32
2022-09-14T18:37:22.948Z,15.22
2022-09-14T18:39:49.364Z,15.24
2022-09-14T18:42:15.845Z,15.36
2022-09-14T18:44:42.185Z,15.44
2022-09-14T18:47:08.833Z,15.37
2022-09-14T18:49:35.297Z,15.40
2022-09-14T18:52:02.863Z,15.23
2022-09-14T18:54:29.310Z,15.17
2022-09-14T18:56:55.815Z,15.08
2022-09-14T18:59:22.195Z,15.27
2022-09-14T19:01:48.630Z,15.02
2022-09-14T19:04:15.785Z,15.09
2022-09-14T19:06:44.332Z,15.00
2022-09-14T19:09:11.022Z,15.01
2022-09-14T19:11:37.678Z,15.07
2022-09-14T19:14:10.105Z,15.10
2022-09-14T19:16:38.141Z,14.89
2022-09-14T19:19:06.113Z,15.07
2022-09-14T19:21:32.783Z,15.07
2022-09-14T19:24:04.377Z,15.06
2022-09-14T19:26:34.038Z,14.92
2022-09-14T19:29:01.718Z,15.04
2022-09-14T19:31:30.836Z,15.03
2022-09-14T19:33:59.051Z,15.02
2022-09-14T19:36:26.268Z,15.03
2022-09-14T19:38:53.855Z,15.07
2022-09-14T19:41:21.668Z,15.20
2022-09-14T19:43:48.176Z,15.26
2022-09-14T19:46:18.090Z,15.18
2022-09-14T19:48:45.636Z,15.30
2022-09-14T19:51:15.293Z,15.37
2022-09-14T19:53:42.591Z,15.30
2022-09-14T19:56:13.153Z,15.41
2022-09-14T19:58:42.813Z,15.40
2022-09-14T20:01:09.860Z,15.35
2022-09-14T20:03:36.974Z,15.34
2022-09-14T20:06:21.030Z,15.42
2022-09-14T20:08:49.323Z,15.29
2022-09-14T20:11:20.270Z,15.39
2022-09-14T20:13:48.386Z,15.40
2022-09-14T20:16:20.081Z,15.43
2022-09-14T20:18:48.045Z,15.41
2022-09-14T20:21:20.926Z,15.41
2022-09-14T20:24:11.621Z,15.25
2022-09-14T20:26:34.477Z,15.46
2022-09-14T20:29:01.402Z,15.29
2022-09-14T20:31:29.539Z,15.41
2022-09-14T20:33:57.193Z,15.44
2022-09-14T20:36:28.675Z,15.35
2022-09-14T20:38:57.238Z,15.52
2022-09-14T20:41:28.243Z,15.36
2022-09-14T20:43:55.310Z,15.38
2022-09-14T20:46:27.238Z,15.46
2022-09-14T20:48:54.673Z,15.41
2022-09-14T20:51:22.582Z,15.52
2022-09-14T20:53:49.436Z,15.48
2022-09-14T20:56:18.821Z,15.53
2022-09-14T20:58:45.728Z,15.42
2022-09-14T21:01:15.095Z,15.33
2022-09-14T21:03:42.837Z,15.31
2022-09-14T21:06:12.252Z,15.17
2022-09-14T21:08:40.476Z,15.18
2022-09-14T21:11:10.359Z,15.22
2022-09-14T21:13:37.375Z,15.13
2022-09-14T21:16:19.153Z,15.24
2022-09-14T21:18:47.560Z,15.08
2022-09-14T21:21:16.297Z,15.09
2022-09-14T21:23:43.380Z,15.08
2022-09-14T21:26:11.749Z,15.23
2022-09-14T21:28:39.810Z,15.22
2022-09-14T21:31:07.272Z,15.27
2022-09-14T21:33:36.278Z,15.07
2022-09-14T21:36:05.393Z,15.21
2022-09-14T21:38:31.825Z,15.19
2022-09-14T21:40:58.229Z,15.20
2022-09-14T21:43:25.116Z,15.36
2022-09-14T21:45:51.677Z,15.33
2022-09-14T21:48:18.100Z,15.23
2022-09-14T21:50:47.389Z,15.33
2022-09-14T21:53:13.990Z,15.18
2022-09-14T21:55:41.436Z,15.23
2022-09-14T21:58:08.288Z,15.43
2022-09-14T22:00:35.131Z,15.03
2022-09-14T22:03:01.569Z,15.46
2022-09-14T22:05:27.927Z,15.47
2022-09-14T22:07:54.337Z,15.32
2022-09-14T22:10:20.661Z,15.45
2022-09-14T22:12:48.472Z,15.42
2022-09-14T22:15:15.836Z,15.48
2022-09-14T22:17:42.180Z,15.36
2022-09-14T22:20:08.599Z,15.34
2022-09-14T22:22:34.999Z,15.34
2022-09-14T22:25:02.480Z,15.35
2022-09-14T22:27:28.948Z,15.32
2022-09-14T22:29:55.321Z,15.33
2022-09-14T22:32:22.640Z,15.31
2022-09-14T22:34:50.574Z,15.35
2022-09-14T22:37:17.197Z,15.41
2022-09-14T22:39:43.840Z,15.30
2022-09-14T22:42:10.708Z,15.32
2022-09-14T22:44:37.096Z,15.36
2022-09-14T22:47:03.496Z,15.33
2022-09-14T22:49:30.739Z,15.18
2022-09-14T22:51:57.081Z,15.33
2022-09-14T22:54:23.571Z,15.27
2022-09-14T22:56:50.022Z,15.31
2022-09-14T22:59:16.533Z,15.30
2022-09-14T23:01:43.096Z,15.34
2022-09-14T23:04:12.025Z,15.39
2022-09-14T23:06:41.294Z,15.32
2022-09-14T23:09:10.032Z,15.30
2022-09-14T23:11:36.678Z,15.14
2022-09-14T23:14:03.588Z,15.23
2022-09-14T23:16:31.287Z,15.29
2022-09-14T23:19:03.172Z,15.30
2022-09-14T23:21:31.193Z,15.30
2022-09-14T23:24:01.581Z,15.33
2022-09-14T23:26:28.587Z,15.29
2022-09-14T23:29:00.346Z,15.19
2022-09-14T23:31:28.448Z,15.33
2022-09-14T23:33:58.626Z,15.31
2022-09-14T23:36:25.482Z,15.17
2022-09-14T23:38:52.567Z,15.24
2022-09-14T23:41:20.915Z,15.23
2022-09-14T23:43:47.503Z,15.24
2022-09-14T23:46:14.773Z,15.18
2022-09-14T23:48:41.329Z,15.13
2022-09-14T23:51:09.636Z,15.18
2022-09-14T23:53:36.841Z,15.13
2022-09-14T23:56:04.100Z,15.03
2022-09-14T23:58:30.994Z,15.12
